Aérodrome :
LOGIN :

S'inscrire | Disclaimer

   EN    FR    IT 

 










Légende :    VFR   VFR Marginal   IFR   IFR Intensif   IFR Très Intensif
Visi : 
Plafond : 
>= 8 km
>= 3000ft
5 à 8 km
1000 à 3000 ft
1500m à 5 km
500 à 1000 ft
800 à 1500m
200 à 500 ft
< 800m
< 200 ft
Symboles :   Orages  Brouillard  Fortes neiges  Fortes précipitations  Vent > 20 kt
SIGMETs :   Divers  Orages  Givrage  Turbulence  Onde Orograph.  Cendres Volcan.






- Altitude de l'aérodrome : 913 ft


LFSX - Luxeuil

DERNIER METAR :
  • 172230Z AUTO 23008KT 200V260 9999 FEW028 SCT037 BKN045 06/05 Q1027

METARs EXPIRÉS :
  • 172200Z AUTO 22006KT 9999 FEW036 SCT074 05/04 Q1027
  • 172130Z AUTO 23005KT CAVOK 05/04 Q1026
  • 172100Z AUTO 25006KT 220V290 9999 FEW022 OVC120 06/04 Q1026
  • 172030Z AUTO 23005KT 9999 FEW027 SCT100 BKN130 06/04 Q1025
  • 172000Z AUTO 24006KT 9999 FEW015/// SCT060/// BKN094/// ///TCU 06/04 Q1024

TAF TAF LFSX
Valide du 17 à 15h jusqu'au 18 à 15h UTC


171400Z 1715/1815 24010KT 9999 NSW BKN020
TEMPO 1716/1723 24015G25KT 4000 SHRA BKN010
TEMPO 1809/1815 24015G25KT 4000 SHRA SCT020TCU



MET'MAP, la Météo Aéronautique d'un coup d'oeil ! - Copyright ORBIFLY Décembre 2007 - Disclaimer

ORBIFLY MET'MAP TEAM :

Programmation & Développement : Alexandra Zaïnal
Sur une idée originale de : Baudouin d'Aumeries
Assistance à la programmation : Marc-Olivier Méhu
Soutien technique & logistique : Manuel Goepfert

Contact : metmap@orbifly.com




SOURCES & CREDITS :

   NOAA